sensor_id;sensor_type;location;lat;lon;timestamp;temperature;humidity
46552;DHT22;32278;51.810;4.712;2022-12-26T00:01:07;16.60;99.90
46552;DHT22;32278;51.810;4.712;2022-12-26T00:03:33;16.60;99.90
46552;DHT22;32278;51.810;4.712;2022-12-26T00:05:58;16.60;99.90
46552;DHT22;32278;51.810;4.712;2022-12-26T00:08:24;16.90;99.90
46552;DHT22;32278;51.810;4.712;2022-12-26T00:10:49;16.80;99.90
46552;DHT22;32278;51.810;4.712;2022-12-26T00:13:15;16.80;99.90
46552;DHT22;32278;51.810;4.712;2022-12-26T00:15:40;17.00;99.90
46552;DHT22;32278;51.810;4.712;2022-12-26T00:18:06;17.00;99.90
46552;DHT22;32278;51.810;4.712;2022-12-26T00:20:32;17.00;99.90
46552;DHT22;32278;51.810;4.712;2022-12-26T00:22:58;17.00;99.90
46552;DHT22;32278;51.810;4.712;2022-12-26T00:25:24;17.20;99.90
46552;DHT22;32278;51.810;4.712;2022-12-26T00:27:49;17.10;99.90
46552;DHT22;32278;51.810;4.712;2022-12-26T00:30:15;17.20;99.90
46552;DHT22;32278;51.810;4.712;2022-12-26T00:32:40;17.20;99.90
46552;DHT22;32278;51.810;4.712;2022-12-26T00:35:06;17.20;99.90
46552;DHT22;32278;51.810;4.712;2022-12-26T00:37:31;17.20;99.90
46552;DHT22;32278;51.810;4.712;2022-12-26T00:39:57;17.20;99.90
46552;DHT22;32278;51.810;4.712;2022-12-26T00:42:22;17.40;99.90
46552;DHT22;32278;51.810;4.712;2022-12-26T00:44:48;17.30;99.90
46552;DHT22;32278;51.810;4.712;2022-12-26T00:47:13;17.50;99.90
46552;DHT22;32278;51.810;4.712;2022-12-26T00:49:39;17.30;99.90
46552;DHT22;32278;51.810;4.712;2022-12-26T00:52:04;17.20;99.90
46552;DHT22;32278;51.810;4.712;2022-12-26T00:54:29;17.50;99.90
46552;DHT22;32278;51.810;4.712;2022-12-26T00:56:55;17.50;99.90
46552;DHT22;32278;51.810;4.712;2022-12-26T00:59:20;17.40;99.90
46552;DHT22;32278;51.810;4.712;2022-12-26T01:01:46;17.60;99.90
46552;DHT22;32278;51.810;4.712;2022-12-26T01:04:11;17.40;99.90
46552;DHT22;32278;51.810;4.712;2022-12-26T01:06:37;17.50;99.90
46552;DHT22;32278;51.810;4.712;2022-12-26T01:09:02;17.50;99.90
46552;DHT22;32278;51.810;4.712;2022-12-26T01:11:28;17.30;99.90
46552;DHT22;32278;51.810;4.712;2022-12-26T01:14:06;17.30;99.90
46552;DHT22;32278;51.810;4.712;2022-12-26T01:16:32;17.30;99.90
46552;DHT22;32278;51.810;4.712;2022-12-26T01:18:57;17.30;99.90
46552;DHT22;32278;51.810;4.712;2022-12-26T01:21:23;17.30;99.90
46552;DHT22;32278;51.810;4.712;2022-12-26T01:23:48;17.30;99.90
46552;DHT22;32278;51.810;4.712;2022-12-26T01:26:14;17.30;99.90
46552;DHT22;32278;51.810;4.712;2022-12-26T01:28:39;17.50;99.90
46552;DHT22;32278;51.810;4.712;2022-12-26T01:31:05;17.40;99.90
46552;DHT22;32278;51.810;4.712;2022-12-26T01:33:31;17.50;99.90
46552;DHT22;32278;51.810;4.712;2022-12-26T01:35:56;17.50;99.90
46552;DHT22;32278;51.810;4.712;2022-12-26T01:38:22;17.70;99.90
46552;DHT22;32278;51.810;4.712;2022-12-26T01:40:48;17.60;99.90
46552;DHT22;32278;51.810;4.712;2022-12-26T01:46:18;17.50;99.90
46552;DHT22;32278;51.810;4.712;2022-12-26T01:48:45;17.60;99.90
46552;DHT22;32278;51.810;4.712;2022-12-26T01:51:10;17.70;99.90
46552;DHT22;32278;51.810;4.712;2022-12-26T01:53:38;17.60;99.90
46552;DHT22;32278;51.810;4.712;2022-12-26T01:56:10;17.60;99.90
46552;DHT22;32278;51.810;4.712;2022-12-26T01:58:37;17.50;99.90
46552;DHT22;32278;51.810;4.712;2022-12-26T02:01:04;17.70;99.90
46552;DHT22;32278;51.810;4.712;2022-12-26T02:03:32;17.70;99.90
46552;DHT22;32278;51.810;4.712;2022-12-26T02:06:16;17.50;99.90
46552;DHT22;32278;51.810;4.712;2022-12-26T02:08:42;17.30;99.90
46552;DHT22;32278;51.810;4.712;2022-12-26T02:11:11;17.30;99.90
46552;DHT22;32278;51.810;4.712;2022-12-26T02:13:37;17.40;99.90
46552;DHT22;32278;51.810;4.712;2022-12-26T02:16:04;17.30;99.90
46552;DHT22;32278;51.810;4.712;2022-12-26T02:18:29;17.30;99.90
46552;DHT22;32278;51.810;4.712;2022-12-26T02:20:58;17.30;99.90
46552;DHT22;32278;51.810;4.712;2022-12-26T02:31:27;17.30;99.90
46552;DHT22;32278;51.810;4.712;2022-12-26T02:41:59;17.30;99.90
46552;DHT22;32278;51.810;4.712;2022-12-26T02:44:39;17.20;99.90
46552;DHT22;32278;51.810;4.712;2022-12-26T02:47:52;17.20;99.90
46552;DHT22;32278;51.810;4.712;2022-12-26T02:55:56;17.20;99.90
46552;DHT22;32278;51.810;4.712;2022-12-26T02:58:47;17.30;99.90
46552;DHT22;32278;51.810;4.712;2022-12-26T03:01:37;17.30;99.90
46552;DHT22;32278;51.810;4.712;2022-12-26T03:04:23;17.30;99.90
46552;DHT22;32278;51.810;4.712;2022-12-26T03:07:13;17.30;99.90
46552;DHT22;32278;51.810;4.712;2022-12-26T03:09:59;17.30;99.90
46552;DHT22;32278;51.810;4.712;2022-12-26T03:12:46;17.30;99.90
46552;DHT22;32278;51.810;4.712;2022-12-26T03:15:32;17.20;99.90
46552;DHT22;32278;51.810;4.712;2022-12-26T03:18:18;17.10;99.90
46552;DHT22;32278;51.810;4.712;2022-12-26T03:20:44;17.10;99.90
46552;DHT22;32278;51.810;4.712;2022-12-26T03:23:12;17.10;99.90
46552;DHT22;32278;51.810;4.712;2022-12-26T03:25:39;17.10;99.90
46552;DHT22;32278;51.810;4.712;2022-12-26T03:28:25;17.20;99.90
46552;DHT22;32278;51.810;4.712;2022-12-26T03:30:51;17.10;99.90
46552;DHT22;32278;51.810;4.712;2022-12-26T03:33:17;17.00;99.90
46552;DHT22;32278;51.810;4.712;2022-12-26T03:36:03;17.00;99.90
46552;DHT22;32278;51.810;4.712;2022-12-26T03:41:40;16.90;99.90
46552;DHT22;32278;51.810;4.712;2022-12-26T03:47:24;16.80;99.90
46552;DHT22;32278;51.810;4.712;2022-12-26T03:50:20;16.80;99.90
46552;DHT22;32278;51.810;4.712;2022-12-26T03:53:12;16.70;99.90
46552;DHT22;32278;51.810;4.712;2022-12-26T03:59:06;16.60;99.90
46552;DHT22;32278;51.810;4.712;2022-12-26T04:01:51;16.50;99.90
46552;DHT22;32278;51.810;4.712;2022-12-26T04:04:37;16.60;99.90
46552;DHT22;32278;51.810;4.712;2022-12-26T04:07:27;16.50;99.90
46552;DHT22;32278;51.810;4.712;2022-12-26T04:10:12;16.40;99.90
46552;DHT22;32278;51.810;4.712;2022-12-26T04:12:57;16.40;99.90
46552;DHT22;32278;51.810;4.712;2022-12-26T04:15:50;16.30;99.90
46552;DHT22;32278;51.810;4.712;2022-12-26T04:24:30;16.20;99.90
46552;DHT22;32278;51.810;4.712;2022-12-26T04:27:15;16.20;99.90
46552;DHT22;32278;51.810;4.712;2022-12-26T04:30:02;16.10;99.90
46552;DHT22;32278;51.810;4.712;2022-12-26T04:32:47;16.10;99.90
46552;DHT22;32278;51.810;4.712;2022-12-26T04:35:44;16.00;99.90
46552;DHT22;32278;51.810;4.712;2022-12-26T04:38:33;15.90;99.90
46552;DHT22;32278;51.810;4.712;2022-12-26T04:41:19;16.00;99.90
46552;DHT22;32278;51.810;4.712;2022-12-26T04:44:04;15.90;99.90
46552;DHT22;32278;51.810;4.712;2022-12-26T04:46:32;15.80;99.90
46552;DHT22;32278;51.810;4.712;2022-12-26T04:48:59;15.80;99.90
46552;DHT22;32278;51.810;4.712;2022-12-26T04:51:45;15.70;99.90
46552;DHT22;32278;51.810;4.712;2022-12-26T04:54:11;15.70;99.90
46552;DHT22;32278;51.810;4.712;2022-12-26T04:56:36;15.70;99.90
46552;DHT22;32278;51.810;4.712;2022-12-26T04:59:02;15.60;99.90
46552;DHT22;32278;51.810;4.712;2022-12-26T05:01:27;15.60;99.90
46552;DHT22;32278;51.810;4.712;2022-12-26T05:04:12;15.50;99.90
46552;DHT22;32278;51.810;4.712;2022-12-26T05:06:57;15.40;99.90
46552;DHT22;32278;51.810;4.712;2022-12-26T05:09:41;15.50;99.90
46552;DHT22;32278;51.810;4.712;2022-12-26T05:12:07;15.40;99.90
46552;DHT22;32278;51.810;4.712;2022-12-26T05:14:33;15.30;99.90
46552;DHT22;32278;51.810;4.712;2022-12-26T05:17:03;15.20;99.90
46552;DHT22;32278;51.810;4.712;2022-12-26T05:19:47;15.20;99.90
46552;DHT22;32278;51.810;4.712;2022-12-26T05:22:32;15.10;99.90
46552;DHT22;32278;51.810;4.712;2022-12-26T05:25:21;15.00;99.90
46552;DHT22;32278;51.810;4.712;2022-12-26T05:28:10;14.90;99.90
46552;DHT22;32278;51.810;4.712;2022-12-26T05:30:55;14.90;99.90
46552;DHT22;32278;51.810;4.712;2022-12-26T05:33:20;14.90;99.90
46552;DHT22;32278;51.810;4.712;2022-12-26T05:36:04;14.90;99.90
46552;DHT22;32278;51.810;4.712;2022-12-26T05:38:30;14.90;99.90
46552;DHT22;32278;51.810;4.712;2022-12-26T05:40:55;14.90;99.90
46552;DHT22;32278;51.810;4.712;2022-12-26T05:43:21;14.80;99.90
46552;DHT22;32278;51.810;4.712;2022-12-26T05:45:46;14.80;99.90
46552;DHT22;32278;51.810;4.712;2022-12-26T05:48:12;14.70;99.90
46552;DHT22;32278;51.810;4.712;2022-12-26T05:50:37;14.80;99.90
46552;DHT22;32278;51.810;4.712;2022-12-26T05:53:03;14.80;99.90
46552;DHT22;32278;51.810;4.712;2022-12-26T05:55:28;14.80;99.90
46552;DHT22;32278;51.810;4.712;2022-12-26T05:57:55;14.70;99.90
46552;DHT22;32278;51.810;4.712;2022-12-26T06:00:21;14.70;99.90
46552;DHT22;32278;51.810;4.712;2022-12-26T06:02:47;14.70;99.90
46552;DHT22;32278;51.810;4.712;2022-12-26T06:05:12;14.60;99.90
46552;DHT22;32278;51.810;4.712;2022-12-26T06:07:37;14.60;99.90
46552;DHT22;32278;51.810;4.712;2022-12-26T06:10:03;14.50;99.90
46552;DHT22;32278;51.810;4.712;2022-12-26T06:12:30;14.50;99.90
46552;DHT22;32278;51.810;4.712;2022-12-26T06:14:56;14.40;99.90
46552;DHT22;32278;51.810;4.712;2022-12-26T06:17:21;14.40;99.90
46552;DHT22;32278;51.810;4.712;2022-12-26T06:19:47;14.30;99.90
46552;DHT22;32278;51.810;4.712;2022-12-26T06:22:12;14.30;99.90
46552;DHT22;32278;51.810;4.712;2022-12-26T06:24:38;14.30;99.90
46552;DHT22;32278;51.810;4.712;2022-12-26T06:27:03;14.20;99.90
46552;DHT22;32278;51.810;4.712;2022-12-26T06:29:29;14.10;99.90
46552;DHT22;32278;51.810;4.712;2022-12-26T06:31:54;14.20;99.90
46552;DHT22;32278;51.810;4.712;2022-12-26T06:34:19;14.10;99.90
46552;DHT22;32278;51.810;4.712;2022-12-26T06:36:45;14.10;99.90
46552;DHT22;32278;51.810;4.712;2022-12-26T06:39:10;14.10;99.90
46552;DHT22;32278;51.810;4.712;2022-12-26T06:41:36;13.90;99.90
46552;DHT22;32278;51.810;4.712;2022-12-26T06:44:01;13.90;99.90
46552;DHT22;32278;51.810;4.712;2022-12-26T06:46:27;13.80;99.90
46552;DHT22;32278;51.810;4.712;2022-12-26T06:48:52;13.70;99.90
46552;DHT22;32278;51.810;4.712;2022-12-26T06:51:22;13.70;99.90
46552;DHT22;32278;51.810;4.712;2022-12-26T06:53:48;13.60;99.90
46552;DHT22;32278;51.810;4.712;2022-12-26T06:56:14;13.60;99.90
46552;DHT22;32278;51.810;4.712;2022-12-26T06:58:40;13.50;99.90
46552;DHT22;32278;51.810;4.712;2022-12-26T07:01:13;13.40;99.90
46552;DHT22;32278;51.810;4.712;2022-12-26T07:03:39;13.40;99.90
46552;DHT22;32278;51.810;4.712;2022-12-26T07:06:12;13.40;99.90
46552;DHT22;32278;51.810;4.712;2022-12-26T07:08:40;13.30;99.90
46552;DHT22;32278;51.810;4.712;2022-12-26T07:11:11;13.30;99.90
46552;DHT22;32278;51.810;4.712;2022-12-26T07:13:37;13.30;99.90
46552;DHT22;32278;51.810;4.712;2022-12-26T07:16:02;13.30;99.90
46552;DHT22;32278;51.810;4.712;2022-12-26T07:18:28;13.20;99.90
46552;DHT22;32278;51.810;4.712;2022-12-26T07:20:53;13.20;99.90
46552;DHT22;32278;51.810;4.712;2022-12-26T07:23:19;13.20;99.90
46552;DHT22;32278;51.810;4.712;2022-12-26T07:25:45;13.10;99.90
46552;DHT22;32278;51.810;4.712;2022-12-26T07:28:11;13.10;99.90
46552;DHT22;32278;51.810;4.712;2022-12-26T07:30:36;13.00;99.90
46552;DHT22;32278;51.810;4.712;2022-12-26T07:33:02;13.00;99.90
46552;DHT22;32278;51.810;4.712;2022-12-26T07:35:27;12.90;99.90
46552;DHT22;32278;51.810;4.712;2022-12-26T07:37:53;12.80;99.90
46552;DHT22;32278;51.810;4.712;2022-12-26T07:40:18;12.80;99.90
46552;DHT22;32278;51.810;4.712;2022-12-26T07:42:44;12.60;99.90
46552;DHT22;32278;51.810;4.712;2022-12-26T07:45:09;12.60;99.90
46552;DHT22;32278;51.810;4.712;2022-12-26T07:47:35;12.50;99.90
46552;DHT22;32278;51.810;4.712;2022-12-26T07:50:00;12.50;99.90
46552;DHT22;32278;51.810;4.712;2022-12-26T07:52:25;12.40;99.90
46552;DHT22;32278;51.810;4.712;2022-12-26T07:54:51;12.40;99.90
46552;DHT22;32278;51.810;4.712;2022-12-26T07:57:16;12.40;99.90
46552;DHT22;32278;51.810;4.712;2022-12-26T07:59:42;12.40;99.90
46552;DHT22;32278;51.810;4.712;2022-12-26T08:02:08;12.50;99.90
46552;DHT22;32278;51.810;4.712;2022-12-26T08:04:34;12.40;99.90
46552;DHT22;32278;51.810;4.712;2022-12-26T08:07:00;12.40;99.90
46552;DHT22;32278;51.810;4.712;2022-12-26T08:09:25;12.50;99.90
46552;DHT22;32278;51.810;4.712;2022-12-26T08:11:51;12.50;99.90
46552;DHT22;32278;51.810;4.712;2022-12-26T08:14:16;12.50;99.90
46552;DHT22;32278;51.810;4.712;2022-12-26T08:16:42;12.50;99.90
46552;DHT22;32278;51.810;4.712;2022-12-26T08:19:08;12.50;99.90
46552;DHT22;32278;51.810;4.712;2022-12-26T08:21:34;12.50;99.90
46552;DHT22;32278;51.810;4.712;2022-12-26T08:24:00;12.50;99.90
46552;DHT22;32278;51.810;4.712;2022-12-26T08:26:25;12.50;99.90
46552;DHT22;32278;51.810;4.712;2022-12-26T08:28:51;12.40;99.90
46552;DHT22;32278;51.810;4.712;2022-12-26T08:31:17;12.40;99.90
46552;DHT22;32278;51.810;4.712;2022-12-26T08:33:43;12.40;99.90
46552;DHT22;32278;51.810;4.712;2022-12-26T08:36:10;12.30;99.90
46552;DHT22;32278;51.810;4.712;2022-12-26T08:38:37;12.20;99.90
46552;DHT22;32278;51.810;4.712;2022-12-26T08:41:03;12.20;99.90
46552;DHT22;32278;51.810;4.712;2022-12-26T08:43:28;12.10;99.90
46552;DHT22;32278;51.810;4.712;2022-12-26T08:46:01;12.10;99.90
46552;DHT22;32278;51.810;4.712;2022-12-26T08:48:28;12.00;99.90
46552;DHT22;32278;51.810;4.712;2022-12-26T08:50:54;12.00;99.90
46552;DHT22;32278;51.810;4.712;2022-12-26T08:53:20;12.00;99.90
46552;DHT22;32278;51.810;4.712;2022-12-26T08:55:45;11.90;99.90
46552;DHT22;32278;51.810;4.712;2022-12-26T08:58:10;11.90;99.90
46552;DHT22;32278;51.810;4.712;2022-12-26T09:00:36;11.90;99.90
46552;DHT22;32278;51.810;4.712;2022-12-26T09:03:01;11.90;99.90
46552;DHT22;32278;51.810;4.712;2022-12-26T09:05:27;11.80;99.90
46552;DHT22;32278;51.810;4.712;2022-12-26T09:07:52;11.90;99.90
46552;DHT22;32278;51.810;4.712;2022-12-26T09:10:18;11.90;99.90
46552;DHT22;32278;51.810;4.712;2022-12-26T09:12:43;11.90;99.90
46552;DHT22;32278;51.810;4.712;2022-12-26T09:15:09;12.00;99.90
46552;DHT22;32278;51.810;4.712;2022-12-26T09:17:34;12.00;99.90
46552;DHT22;32278;51.810;4.712;2022-12-26T09:20:00;12.00;99.90
46552;DHT22;32278;51.810;4.712;2022-12-26T09:22:25;12.00;99.90
46552;DHT22;32278;51.810;4.712;2022-12-26T09:25:09;12.10;99.90
46552;DHT22;32278;51.810;4.712;2022-12-26T09:27:35;12.20;99.90
46552;DHT22;32278;51.810;4.712;2022-12-26T09:30:00;12.20;99.90
46552;DHT22;32278;51.810;4.712;2022-12-26T09:32:26;12.40;99.90
46552;DHT22;32278;51.810;4.712;2022-12-26T09:34:51;12.40;99.90
46552;DHT22;32278;51.810;4.712;2022-12-26T09:37:17;12.50;99.90
46552;DHT22;32278;51.810;4.712;2022-12-26T09:39:42;12.50;99.90
46552;DHT22;32278;51.810;4.712;2022-12-26T09:42:19;12.50;99.90
46552;DHT22;32278;51.810;4.712;2022-12-26T09:45:03;12.50;99.90
46552;DHT22;32278;51.810;4.712;2022-12-26T09:47:56;12.60;99.90
46552;DHT22;32278;51.810;4.712;2022-12-26T09:50:28;12.50;99.90
46552;DHT22;32278;51.810;4.712;2022-12-26T09:52:57;12.50;99.90
46552;DHT22;32278;51.810;4.712;2022-12-26T09:57:52;11.80;99.90
46552;DHT22;32278;51.810;4.712;2022-12-26T10:00:20;11.40;99.90
46552;DHT22;32278;51.810;4.712;2022-12-26T10:02:54;10.80;99.90
46552;DHT22;32278;51.810;4.712;2022-12-26T10:05:21;10.10;99.90
46552;DHT22;32278;51.810;4.712;2022-12-26T10:07:50;9.80;99.90
46552;DHT22;32278;51.810;4.712;2022-12-26T10:12:53;9.30;99.90
46552;DHT22;32278;51.810;4.712;2022-12-26T10:15:28;9.10;99.90
46552;DHT22;32278;51.810;4.712;2022-12-26T10:23:27;8.80;99.90
46552;DHT22;32278;51.810;4.712;2022-12-26T10:25:55;8.70;99.90
46552;DHT22;32278;51.810;4.712;2022-12-26T10:30:56;8.60;99.90
46552;DHT22;32278;51.810;4.712;2022-12-26T10:33:33;8.60;99.90
46552;DHT22;32278;51.810;4.712;2022-12-26T10:36:00;8.50;99.90
46552;DHT22;32278;51.810;4.712;2022-12-26T10:40:55;8.40;99.90
46552;DHT22;32278;51.810;4.712;2022-12-26T10:43:29;8.30;99.90
46552;DHT22;32278;51.810;4.712;2022-12-26T10:48:20;8.40;99.90
46552;DHT22;32278;51.810;4.712;2022-12-26T10:50:48;8.30;99.90
46552;DHT22;32278;51.810;4.712;2022-12-26T10:53:14;8.30;99.90
46552;DHT22;32278;51.810;4.712;2022-12-26T10:55:40;8.20;99.90
46552;DHT22;32278;51.810;4.712;2022-12-26T11:00:46;8.10;99.90
46552;DHT22;32278;51.810;4.712;2022-12-26T11:03:13;8.10;99.90
46552;DHT22;32278;51.810;4.712;2022-12-26T11:05:40;8.00;99.90
46552;DHT22;32278;51.810;4.712;2022-12-26T11:11:06;8.00;99.90
46552;DHT22;32278;51.810;4.712;2022-12-26T11:13:39;8.00;99.90
46552;DHT22;32278;51.810;4.712;2022-12-26T11:16:06;8.00;99.90
46552;DHT22;32278;51.810;4.712;2022-12-26T11:18:36;8.00;99.90
46552;DHT22;32278;51.810;4.712;2022-12-26T11:23:52;7.90;99.90
46552;DHT22;32278;51.810;4.712;2022-12-26T11:26:28;7.90;99.90
46552;DHT22;32278;51.810;4.712;2022-12-26T11:34:25;7.60;99.90
46552;DHT22;32278;51.810;4.712;2022-12-26T11:36:51;7.70;99.90
46552;DHT22;32278;51.810;4.712;2022-12-26T11:41:42;7.70;99.90
46552;DHT22;32278;51.810;4.712;2022-12-26T11:46:39;7.90;99.90
46552;DHT22;32278;51.810;4.712;2022-12-26T11:49:05;7.90;99.90
46552;DHT22;32278;51.810;4.712;2022-12-26T11:51:39;7.90;99.90
46552;DHT22;32278;51.810;4.712;2022-12-26T11:54:12;8.00;99.90
46552;DHT22;32278;51.810;4.712;2022-12-26T11:56:42;8.20;99.90
46552;DHT22;32278;51.810;4.712;2022-12-26T11:59:16;8.10;99.90
46552;DHT22;32278;51.810;4.712;2022-12-26T12:01:42;8.00;99.90
46552;DHT22;32278;51.810;4.712;2022-12-26T12:04:08;8.10;99.90
46552;DHT22;32278;51.810;4.712;2022-12-26T12:17:00;7.70;99.90
46552;DHT22;32278;51.810;4.712;2022-12-26T12:19:35;7.70;99.90
46552;DHT22;32278;51.810;4.712;2022-12-26T12:24:57;7.80;99.90
46552;DHT22;32278;51.810;4.712;2022-12-26T12:27:45;7.90;99.90
46552;DHT22;32278;51.810;4.712;2022-12-26T12:35:20;7.90;99.90
46552;DHT22;32278;51.810;4.712;2022-12-26T12:37:58;8.00;99.90
46552;DHT22;32278;51.810;4.712;2022-12-26T12:40:31;7.90;99.90
46552;DHT22;32278;51.810;4.712;2022-12-26T12:45:33;8.00;99.90
46552;DHT22;32278;51.810;4.712;2022-12-26T12:48:11;7.90;99.90
46552;DHT22;32278;51.810;4.712;2022-12-26T12:55:50;7.40;99.90
46552;DHT22;32278;51.810;4.712;2022-12-26T13:01:06;7.30;99.90
46552;DHT22;32278;51.810;4.712;2022-12-26T13:06:41;7.30;99.90
46552;DHT22;32278;51.810;4.712;2022-12-26T13:09:19;7.10;99.90
46552;DHT22;32278;51.810;4.712;2022-12-26T13:11:47;7.00;99.90
46552;DHT22;32278;51.810;4.712;2022-12-26T13:14:15;7.10;99.90
46552;DHT22;32278;51.810;4.712;2022-12-26T13:16:43;7.10;99.90
46552;DHT22;32278;51.810;4.712;2022-12-26T13:19:24;7.10;99.90
46552;DHT22;32278;51.810;4.712;2022-12-26T13:21:50;7.10;99.90
46552;DHT22;32278;51.810;4.712;2022-12-26T13:24:30;7.20;99.90
46552;DHT22;32278;51.810;4.712;2022-12-26T13:27:38;7.20;99.90
46552;DHT22;32278;51.810;4.712;2022-12-26T13:29:45;7.20;99.90
46552;DHT22;32278;51.810;4.712;2022-12-26T13:32:13;7.20;99.90
46552;DHT22;32278;51.810;4.712;2022-12-26T13:34:41;7.30;99.90
46552;DHT22;32278;51.810;4.712;2022-12-26T13:37:07;7.30;99.90
46552;DHT22;32278;51.810;4.712;2022-12-26T13:39:52;7.30;99.90
46552;DHT22;32278;51.810;4.712;2022-12-26T13:42:20;7.40;99.90
46552;DHT22;32278;51.810;4.712;2022-12-26T13:47:49;7.50;99.90
46552;DHT22;32278;51.810;4.712;2022-12-26T13:52:59;7.60;99.90
46552;DHT22;32278;51.810;4.712;2022-12-26T13:55:29;7.50;99.90
46552;DHT22;32278;51.810;4.712;2022-12-26T13:58:14;7.50;99.90
46552;DHT22;32278;51.810;4.712;2022-12-26T14:00:44;7.30;99.90
46552;DHT22;32278;51.810;4.712;2022-12-26T14:08:33;7.30;99.90
46552;DHT22;32278;51.810;4.712;2022-12-26T14:11:25;7.20;99.90
46552;DHT22;32278;51.810;4.712;2022-12-26T14:16:22;6.90;99.90
46552;DHT22;32278;51.810;4.712;2022-12-26T14:18:59;6.90;99.90
46552;DHT22;32278;51.810;4.712;2022-12-26T14:21:30;6.90;99.90
46552;DHT22;32278;51.810;4.712;2022-12-26T14:31:54;6.80;99.90
46552;DHT22;32278;51.810;4.712;2022-12-26T14:34:29;6.80;99.90
46552;DHT22;32278;51.810;4.712;2022-12-26T14:39:27;6.80;99.90
46552;DHT22;32278;51.810;4.712;2022-12-26T14:44:57;6.80;99.90
46552;DHT22;32278;51.810;4.712;2022-12-26T14:52:51;6.80;99.90
46552;DHT22;32278;51.810;4.712;2022-12-26T14:55:37;6.70;99.90
46552;DHT22;32278;51.810;4.712;2022-12-26T14:58:18;6.70;99.90
46552;DHT22;32278;51.810;4.712;2022-12-26T15:00:48;6.70;99.90
46552;DHT22;32278;51.810;4.712;2022-12-26T15:06:03;6.70;99.90
46552;DHT22;32278;51.810;4.712;2022-12-26T15:16:25;6.70;99.90
46552;DHT22;32278;51.810;4.712;2022-12-26T15:18:59;6.70;99.90
46552;DHT22;32278;51.810;4.712;2022-12-26T15:24:47;6.80;99.90
46552;DHT22;32278;51.810;4.712;2022-12-26T15:30:21;6.70;99.90
46552;DHT22;32278;51.810;4.712;2022-12-26T15:35:20;6.60;99.90
46552;DHT22;32278;51.810;4.712;2022-12-26T15:37:58;6.60;99.90
46552;DHT22;32278;51.810;4.712;2022-12-26T15:40:35;6.60;99.90
46552;DHT22;32278;51.810;4.712;2022-12-26T15:53:12;6.50;99.90
46552;DHT22;32278;51.810;4.712;2022-12-26T15:55:47;6.40;99.90
46552;DHT22;32278;51.810;4.712;2022-12-26T16:00:53;6.20;99.90
46552;DHT22;32278;51.810;4.712;2022-12-26T16:06:13;6.30;99.90
46552;DHT22;32278;51.810;4.712;2022-12-26T16:13:34;6.20;99.90
46552;DHT22;32278;51.810;4.712;2022-12-26T16:15:59;6.20;99.90
46552;DHT22;32278;51.810;4.712;2022-12-26T16:18:26;6.20;99.90
46552;DHT22;32278;51.810;4.712;2022-12-26T16:20:52;6.20;99.90
46552;DHT22;32278;51.810;4.712;2022-12-26T16:23:38;6.20;99.90
46552;DHT22;32278;51.810;4.712;2022-12-26T16:26:04;6.10;99.90
46552;DHT22;32278;51.810;4.712;2022-12-26T16:30:55;6.20;99.90
46552;DHT22;32278;51.810;4.712;2022-12-26T16:33:21;6.20;99.90
46552;DHT22;32278;51.810;4.712;2022-12-26T16:35:46;6.10;99.90
46552;DHT22;32278;51.810;4.712;2022-12-26T16:38:13;6.10;99.90
46552;DHT22;32278;51.810;4.712;2022-12-26T16:40:44;6.10;99.90
46552;DHT22;32278;51.810;4.712;2022-12-26T16:45:38;5.80;99.90
46552;DHT22;32278;51.810;4.712;2022-12-26T16:48:05;5.90;99.90
46552;DHT22;32278;51.810;4.712;2022-12-26T16:50:31;5.90;99.90
46552;DHT22;32278;51.810;4.712;2022-12-26T16:55:42;5.90;99.90
46552;DHT22;32278;51.810;4.712;2022-12-26T16:58:21;5.90;99.90
46552;DHT22;32278;51.810;4.712;2022-12-26T17:00:49;5.80;99.90
46552;DHT22;32278;51.810;4.712;2022-12-26T17:03:25;5.80;99.90
46552;DHT22;32278;51.810;4.712;2022-12-26T17:05:51;5.70;99.90
46552;DHT22;32278;51.810;4.712;2022-12-26T17:08:17;5.70;99.90
46552;DHT22;32278;51.810;4.712;2022-12-26T17:10:47;5.70;99.90
46552;DHT22;32278;51.810;4.712;2022-12-26T17:13:17;5.80;99.90
46552;DHT22;32278;51.810;4.712;2022-12-26T17:15:49;5.80;99.90
46552;DHT22;32278;51.810;4.712;2022-12-26T17:20:52;5.80;99.90
46552;DHT22;32278;51.810;4.712;2022-12-26T17:23:32;5.90;99.90
46552;DHT22;32278;51.810;4.712;2022-12-26T17:26:19;5.80;99.90
46552;DHT22;32278;51.810;4.712;2022-12-26T17:28:43;5.70;99.90
46552;DHT22;32278;51.810;4.712;2022-12-26T17:31:16;5.70;99.90
46552;DHT22;32278;51.810;4.712;2022-12-26T17:33:42;5.60;99.90
46552;DHT22;32278;51.810;4.712;2022-12-26T17:36:10;5.60;99.90
46552;DHT22;32278;51.810;4.712;2022-12-26T17:38:37;5.50;99.90
46552;DHT22;32278;51.810;4.712;2022-12-26T17:41:03;5.50;99.90
46552;DHT22;32278;51.810;4.712;2022-12-26T17:45:55;5.50;99.90
46552;DHT22;32278;51.810;4.712;2022-12-26T17:48:21;5.50;99.90
46552;DHT22;32278;51.810;4.712;2022-12-26T17:50:47;5.50;99.90
46552;DHT22;32278;51.810;4.712;2022-12-26T17:53:27;5.50;99.90
46552;DHT22;32278;51.810;4.712;2022-12-26T17:55:55;5.50;99.90
46552;DHT22;32278;51.810;4.712;2022-12-26T17:58:21;5.60;99.90
46552;DHT22;32278;51.810;4.712;2022-12-26T18:00:47;5.50;99.90
46552;DHT22;32278;51.810;4.712;2022-12-26T18:03:13;5.50;99.90
46552;DHT22;32278;51.810;4.712;2022-12-26T18:05:39;5.50;99.90
46552;DHT22;32278;51.810;4.712;2022-12-26T18:08:05;5.40;99.90
46552;DHT22;32278;51.810;4.712;2022-12-26T18:10:31;5.40;99.90
46552;DHT22;32278;51.810;4.712;2022-12-26T18:12:58;5.40;99.90
46552;DHT22;32278;51.810;4.712;2022-12-26T18:15:24;5.40;99.90
46552;DHT22;32278;51.810;4.712;2022-12-26T18:17:50;5.40;99.90
46552;DHT22;32278;51.810;4.712;2022-12-26T18:20:17;5.30;99.90
46552;DHT22;32278;51.810;4.712;2022-12-26T18:22:42;5.40;99.90
46552;DHT22;32278;51.810;4.712;2022-12-26T18:25:11;5.40;99.90
46552;DHT22;32278;51.810;4.712;2022-12-26T18:27:36;5.30;99.90
46552;DHT22;32278;51.810;4.712;2022-12-26T18:30:02;5.40;99.90
46552;DHT22;32278;51.810;4.712;2022-12-26T18:32:28;5.30;99.90
46552;DHT22;32278;51.810;4.712;2022-12-26T18:34:54;5.40;99.90
46552;DHT22;32278;51.810;4.712;2022-12-26T18:37:20;5.50;99.90
46552;DHT22;32278;51.810;4.712;2022-12-26T18:39:46;5.50;99.90
46552;DHT22;32278;51.810;4.712;2022-12-26T18:42:12;5.50;99.90
46552;DHT22;32278;51.810;4.712;2022-12-26T18:44:38;5.50;99.90
46552;DHT22;32278;51.810;4.712;2022-12-26T18:47:04;5.50;99.90
46552;DHT22;32278;51.810;4.712;2022-12-26T18:49:30;5.50;99.90
46552;DHT22;32278;51.810;4.712;2022-12-26T18:51:55;5.50;99.90
46552;DHT22;32278;51.810;4.712;2022-12-26T18:54:20;5.50;99.90
46552;DHT22;32278;51.810;4.712;2022-12-26T18:56:46;5.40;99.90
46552;DHT22;32278;51.810;4.712;2022-12-26T18:59:11;5.40;99.90
46552;DHT22;32278;51.810;4.712;2022-12-26T19:01:37;5.40;99.90
46552;DHT22;32278;51.810;4.712;2022-12-26T19:04:02;5.30;99.90
46552;DHT22;32278;51.810;4.712;2022-12-26T19:06:28;5.30;99.90
46552;DHT22;32278;51.810;4.712;2022-12-26T19:08:54;5.30;99.90